sensor_id;sensor_type;location;lat;lon;timestamp;pressure;altitude;pressure_sealevel;temperature;humidity
11001;BME280;5553;48.506;8.870;2022-10-20T00:01:24;97123.94;;;7.80;100.00
11001;BME280;5553;48.506;8.870;2022-10-20T00:03:53;97121.31;;;7.80;100.00
11001;BME280;5553;48.506;8.870;2022-10-20T00:06:23;97127.31;;;7.72;100.00
11001;BME280;5553;48.506;8.870;2022-10-20T00:08:53;97129.94;;;7.72;100.00
11001;BME280;5553;48.506;8.870;2022-10-20T00:11:22;97113.34;;;7.64;100.00
11001;BME280;5553;48.506;8.870;2022-10-20T00:13:52;97120.63;;;7.78;100.00
11001;BME280;5553;48.506;8.870;2022-10-20T00:16:26;97115.56;;;7.84;100.00
11001;BME280;5553;48.506;8.870;2022-10-20T00:18:56;97134.44;;;7.80;100.00
11001;BME280;5553;48.506;8.870;2022-10-20T00:21:27;97137.09;;;7.88;100.00
11001;BME280;5553;48.506;8.870;2022-10-20T00:23:58;97141.03;;;7.92;100.00
11001;BME280;5553;48.506;8.870;2022-10-20T00:26:29;97148.56;;;7.87;100.00
11001;BME280;5553;48.506;8.870;2022-10-20T00:28:57;97138.53;;;7.82;100.00
11001;BME280;5553;48.506;8.870;2022-10-20T00:31:28;97135.06;;;7.74;100.00
11001;BME280;5553;48.506;8.870;2022-10-20T00:33:57;97140.50;;;7.80;100.00
11001;BME280;5553;48.506;8.870;2022-10-20T00:36:25;97142.97;;;7.82;100.00
11001;BME280;5553;48.506;8.870;2022-10-20T00:38:57;97151.03;;;7.80;100.00
11001;BME280;5553;48.506;8.870;2022-10-20T00:41:27;97146.38;;;7.74;100.00
11001;BME280;5553;48.506;8.870;2022-10-20T00:43:57;97142.78;;;7.75;100.00
11001;BME280;5553;48.506;8.870;2022-10-20T00:46:32;97137.88;;;7.80;100.00
11001;BME280;5553;48.506;8.870;2022-10-20T00:49:05;97131.44;;;7.75;100.00
11001;BME280;5553;48.506;8.870;2022-10-20T00:51:34;97130.03;;;7.54;100.00
11001;BME280;5553;48.506;8.870;2022-10-20T00:54:06;97137.19;;;7.36;100.00
11001;BME280;5553;48.506;8.870;2022-10-20T00:56:36;97134.28;;;7.47;100.00
11001;BME280;5553;48.506;8.870;2022-10-20T00:59:07;97122.16;;;7.46;100.00
11001;BME280;5553;48.506;8.870;2022-10-20T01:01:39;97118.34;;;7.41;100.00
11001;BME280;5553;48.506;8.870;2022-10-20T01:04:08;97118.63;;;7.38;100.00
11001;BME280;5553;48.506;8.870;2022-10-20T01:06:37;97106.97;;;7.32;100.00
11001;BME280;5553;48.506;8.870;2022-10-20T01:09:06;97105.19;;;7.32;100.00
11001;BME280;5553;48.506;8.870;2022-10-20T01:11:44;97111.94;;;7.35;100.00
11001;BME280;5553;48.506;8.870;2022-10-20T01:14:26;97106.59;;;7.19;100.00
11001;BME280;5553;48.506;8.870;2022-10-20T01:17:09;97106.88;;;7.16;100.00
11001;BME280;5553;48.506;8.870;2022-10-20T01:20:14;97099.84;;;7.16;100.00
11001;BME280;5553;48.506;8.870;2022-10-20T01:23:08;97091.41;;;7.04;100.00
11001;BME280;5553;48.506;8.870;2022-10-20T01:25:49;97103.25;;;7.08;100.00
11001;BME280;5553;48.506;8.870;2022-10-20T01:28:28;97096.69;;;7.12;100.00
11001;BME280;5553;48.506;8.870;2022-10-20T01:31:02;97092.88;;;7.07;100.00
11001;BME280;5553;48.506;8.870;2022-10-20T01:33:38;97099.81;;;7.08;100.00
11001;BME280;5553;48.506;8.870;2022-10-20T01:36:12;97094.34;;;7.01;100.00
11001;BME280;5553;48.506;8.870;2022-10-20T01:38:47;97109.63;;;7.06;100.00
11001;BME280;5553;48.506;8.870;2022-10-20T01:41:22;97097.31;;;7.06;100.00
11001;BME280;5553;48.506;8.870;2022-10-20T01:44:00;97100.09;;;6.79;100.00
11001;BME280;5553;48.506;8.870;2022-10-20T01:46:31;97100.84;;;6.71;100.00
11001;BME280;5553;48.506;8.870;2022-10-20T01:49:01;97106.53;;;6.84;100.00
11001;BME280;5553;48.506;8.870;2022-10-20T01:51:31;97111.78;;;6.84;100.00
11001;BME280;5553;48.506;8.870;2022-10-20T01:53:59;97110.63;;;6.87;100.00
11001;BME280;5553;48.506;8.870;2022-10-20T01:56:34;97107.34;;;6.85;100.00
11001;BME280;5553;48.506;8.870;2022-10-20T01:59:20;97099.94;;;6.80;100.00
11001;BME280;5553;48.506;8.870;2022-10-20T02:02:06;97100.47;;;6.84;100.00
11001;BME280;5553;48.506;8.870;2022-10-20T02:04:47;97083.88;;;6.83;100.00
11001;BME280;5553;48.506;8.870;2022-10-20T02:07:25;97092.94;;;6.89;100.00
11001;BME280;5553;48.506;8.870;2022-10-20T02:09:59;97092.94;;;6.89;100.00
11001;BME280;5553;48.506;8.870;2022-10-20T02:12:33;97087.69;;;6.89;100.00
11001;BME280;5553;48.506;8.870;2022-10-20T02:15:08;97087.34;;;6.84;100.00
11001;BME280;5553;48.506;8.870;2022-10-20T02:17:38;97074.25;;;6.84;100.00
11001;BME280;5553;48.506;8.870;2022-10-20T02:20:09;97084.41;;;6.87;100.00
11001;BME280;5553;48.506;8.870;2022-10-20T02:22:38;97085.13;;;6.97;100.00
11001;BME280;5553;48.506;8.870;2022-10-20T02:25:09;97090.06;;;7.00;100.00
11001;BME280;5553;48.506;8.870;2022-10-20T02:27:40;97088.59;;;6.98;100.00
11001;BME280;5553;48.506;8.870;2022-10-20T02:30:15;97094.47;;;7.00;100.00
11001;BME280;5553;48.506;8.870;2022-10-20T02:32:47;97087.91;;;6.96;100.00
11001;BME280;5553;48.506;8.870;2022-10-20T02:35:19;97092.53;;;7.02;100.00
11001;BME280;5553;48.506;8.870;2022-10-20T02:37:48;97083.16;;;6.99;100.00
11001;BME280;5553;48.506;8.870;2022-10-20T02:40:17;97087.28;;;7.02;100.00
11001;BME280;5553;48.506;8.870;2022-10-20T02:42:46;97084.88;;;7.08;100.00
11001;BME280;5553;48.506;8.870;2022-10-20T02:45:17;97086.81;;;7.06;100.00
11001;BME280;5553;48.506;8.870;2022-10-20T02:47:45;97088.59;;;6.98;100.00
11001;BME280;5553;48.506;8.870;2022-10-20T02:50:14;97075.56;;;6.88;100.00
11001;BME280;5553;48.506;8.870;2022-10-20T02:52:42;97088.69;;;6.88;100.00
11001;BME280;5553;48.506;8.870;2022-10-20T02:55:11;97084.59;;;6.94;100.00
11001;BME280;5553;48.506;8.870;2022-10-20T02:57:39;97092.97;;;6.97;100.00
11001;BME280;5553;48.506;8.870;2022-10-20T03:00:09;97093.66;;;6.99;100.00
11001;BME280;5553;48.506;8.870;2022-10-20T03:02:40;97093.97;;;6.96;100.00
11001;BME280;5553;48.506;8.870;2022-10-20T03:05:08;97094.19;;;7.03;100.00
11001;BME280;5553;48.506;8.870;2022-10-20T03:07:36;97094.19;;;7.03;100.00
11001;BME280;5553;48.506;8.870;2022-10-20T03:10:05;97096.28;;;6.99;100.00
11001;BME280;5553;48.506;8.870;2022-10-20T03:12:34;97096.28;;;6.99;100.00
11001;BME280;5553;48.506;8.870;2022-10-20T03:15:03;97095.69;;;7.05;100.00
11001;BME280;5553;48.506;8.870;2022-10-20T03:17:31;97099.28;;;7.04;100.00
11001;BME280;5553;48.506;8.870;2022-10-20T03:20:03;97095.69;;;7.05;100.00
11001;BME280;5553;48.506;8.870;2022-10-20T03:22:31;97102.56;;;7.06;100.00
11001;BME280;5553;48.506;8.870;2022-10-20T03:24:59;97093.56;;;7.09;100.00
11001;BME280;5553;48.506;8.870;2022-10-20T03:27:28;97094.69;;;7.06;100.00
11001;BME280;5553;48.506;8.870;2022-10-20T03:29:56;97098.50;;;7.12;100.00
11001;BME280;5553;48.506;8.870;2022-10-20T03:32:24;97098.03;;;7.17;100.00
11001;BME280;5553;48.506;8.870;2022-10-20T03:34:52;97099.16;;;7.14;100.00
11001;BME280;5553;48.506;8.870;2022-10-20T03:37:23;97107.53;;;7.18;100.00
11001;BME280;5553;48.506;8.870;2022-10-20T03:39:52;97103.13;;;7.18;100.00
11001;BME280;5553;48.506;8.870;2022-10-20T03:42:20;97110.22;;;7.26;100.00
11001;BME280;5553;48.506;8.870;2022-10-20T03:44:48;97096.78;;;7.29;100.00
11001;BME280;5553;48.506;8.870;2022-10-20T03:47:17;97096.44;;;7.24;100.00
11001;BME280;5553;48.506;8.870;2022-10-20T03:49:45;97101.53;;;7.25;100.00
11001;BME280;5553;48.506;8.870;2022-10-20T03:52:13;97105.69;;;7.36;100.00
11001;BME280;5553;48.506;8.870;2022-10-20T03:54:44;97099.94;;;7.32;100.00
11001;BME280;5553;48.506;8.870;2022-10-20T03:57:12;97105.69;;;7.36;100.00
11001;BME280;5553;48.506;8.870;2022-10-20T03:59:41;97092.06;;;7.41;100.00
11001;BME280;5553;48.506;8.870;2022-10-20T04:02:22;97085.69;;;7.43;100.00
11001;BME280;5553;48.506;8.870;2022-10-20T04:04:55;97078.13;;;7.40;100.00
11001;BME280;5553;48.506;8.870;2022-10-20T04:07:23;97090.06;;;7.34;100.00
11001;BME280;5553;48.506;8.870;2022-10-20T04:09:54;97089.34;;;7.50;100.00
11001;BME280;5553;48.506;8.870;2022-10-20T04:12:23;97087.34;;;7.44;100.00
11001;BME280;5553;48.506;8.870;2022-10-20T04:14:52;97076.31;;;7.41;100.00
11001;BME280;5553;48.506;8.870;2022-10-20T04:17:20;97069.94;;;7.35;100.00
11001;BME280;5553;48.506;8.870;2022-10-20T04:19:48;97084.06;;;7.42;100.00
11001;BME280;5553;48.506;8.870;2022-10-20T04:22:16;97074.00;;;7.38;100.00
11001;BME280;5553;48.506;8.870;2022-10-20T04:24:45;97083.97;;;7.26;100.00
11001;BME280;5553;48.506;8.870;2022-10-20T04:27:16;97082.00;;;7.28;100.00
11001;BME280;5553;48.506;8.870;2022-10-20T04:29:45;97077.09;;;7.25;100.00
11001;BME280;5553;48.506;8.870;2022-10-20T04:32:14;97073.47;;;7.26;100.00
11001;BME280;5553;48.506;8.870;2022-10-20T04:34:42;97073.47;;;7.26;100.00
11001;BME280;5553;48.506;8.870;2022-10-20T04:37:10;97075.91;;;7.19;100.00
11001;BME280;5553;48.506;8.870;2022-10-20T04:39:38;97059.22;;;7.28;100.00
11001;BME280;5553;48.506;8.870;2022-10-20T04:42:07;97059.03;;;7.22;100.00
11001;BME280;5553;48.506;8.870;2022-10-20T04:44:38;97057.72;;;7.26;100.00
11001;BME280;5553;48.506;8.870;2022-10-20T04:47:06;97064.00;;;7.33;100.00
11001;BME280;5553;48.506;8.870;2022-10-20T04:49:34;97061.00;;;7.28;100.00
11001;BME280;5553;48.506;8.870;2022-10-20T04:52:03;97061.00;;;7.28;100.00
11001;BME280;5553;48.506;8.870;2022-10-20T04:54:31;97050.69;;;7.34;100.00
11001;BME280;5553;48.506;8.870;2022-10-20T04:56:59;97043.81;;;7.33;100.00
11001;BME280;5553;48.506;8.870;2022-10-20T04:59:30;97039.75;;;7.39;100.00
11001;BME280;5553;48.506;8.870;2022-10-20T05:02:01;97034.00;;;7.44;100.00
11001;BME280;5553;48.506;8.870;2022-10-20T05:04:30;97034.63;;;7.29;100.00
11001;BME280;5553;48.506;8.870;2022-10-20T05:06:58;97030.00;;;7.31;100.00
11001;BME280;5553;48.506;8.870;2022-10-20T05:09:27;97019.56;;;7.40;100.00
11001;BME280;5553;48.506;8.870;2022-10-20T05:11:55;97013.81;;;7.44;100.00
11001;BME280;5553;48.506;8.870;2022-10-20T05:14:24;97011.44;;;7.59;100.00
11001;BME280;5553;48.506;8.870;2022-10-20T05:16:52;97002.06;;;7.56;100.00
11001;BME280;5553;48.506;8.870;2022-10-20T05:19:23;96996.44;;;7.51;100.00
11001;BME280;5553;48.506;8.870;2022-10-20T05:21:51;96996.63;;;7.50;100.00
11001;BME280;5553;48.506;8.870;2022-10-20T05:24:21;96996.44;;;7.43;100.00
11001;BME280;5553;48.506;8.870;2022-10-20T05:26:49;96996.44;;;7.43;100.00
11001;BME280;5553;48.506;8.870;2022-10-20T05:29:17;96993.94;;;7.42;100.00
11001;BME280;5553;48.506;8.870;2022-10-20T05:31:45;96973.75;;;7.26;100.00
11001;BME280;5553;48.506;8.870;2022-10-20T05:34:14;96976.50;;;7.24;100.00
11001;BME280;5553;48.506;8.870;2022-10-20T05:36:45;96978.63;;;7.21;100.00
11001;BME280;5553;48.506;8.870;2022-10-20T05:39:13;96978.19;;;7.25;100.00
11001;BME280;5553;48.506;8.870;2022-10-20T05:41:41;96984.25;;;7.26;100.00
11001;BME280;5553;48.506;8.870;2022-10-20T05:44:11;96974.25;;;7.29;100.00
11001;BME280;5553;48.506;8.870;2022-10-20T05:46:39;96973.44;;;7.29;100.00
11001;BME280;5553;48.506;8.870;2022-10-20T05:49:11;96973.25;;;7.22;100.00
11001;BME280;5553;48.506;8.870;2022-10-20T05:51:40;96969.09;;;7.11;100.00
11001;BME280;5553;48.506;8.870;2022-10-20T05:54:12;96968.34;;;6.93;100.00
11001;BME280;5553;48.506;8.870;2022-10-20T05:56:41;96970.34;;;6.91;100.00
11001;BME280;5553;48.506;8.870;2022-10-20T05:59:10;96987.78;;;7.08;100.00
11001;BME280;5553;48.506;8.870;2022-10-20T06:01:39;96992.84;;;7.02;100.00
11001;BME280;5553;48.506;8.870;2022-10-20T06:04:12;97003.72;;;7.15;100.00
11001;BME280;5553;48.506;8.870;2022-10-20T06:06:41;97008.47;;;7.11;100.00
11001;BME280;5553;48.506;8.870;2022-10-20T06:09:16;97000.94;;;7.17;100.00
11001;BME280;5553;48.506;8.870;2022-10-20T06:11:45;96991.75;;;7.21;100.00
11001;BME280;5553;48.506;8.870;2022-10-20T06:14:14;96991.50;;;7.32;100.00
11001;BME280;5553;48.506;8.870;2022-10-20T06:16:43;97000.69;;;7.36;100.00
11001;BME280;5553;48.506;8.870;2022-10-20T06:19:11;97003.13;;;7.38;100.00
11001;BME280;5553;48.506;8.870;2022-10-20T06:21:39;97014.81;;;7.35;100.00
11001;BME280;5553;48.506;8.870;2022-10-20T06:24:09;97005.56;;;7.31;100.00
11001;BME280;5553;48.506;8.870;2022-10-20T06:26:42;97003.63;;;7.41;100.00
11001;BME280;5553;48.506;8.870;2022-10-20T06:29:12;96999.56;;;7.39;100.00
11001;BME280;5553;48.506;8.870;2022-10-20T06:31:42;97009.75;;;7.50;100.00
11001;BME280;5553;48.506;8.870;2022-10-20T06:34:14;97015.19;;;7.56;100.00
11001;BME280;5553;48.506;8.870;2022-10-20T06:36:44;97009.63;;;7.59;100.00
11001;BME280;5553;48.506;8.870;2022-10-20T06:39:14;97007.81;;;7.68;100.00
11001;BME280;5553;48.506;8.870;2022-10-20T06:41:46;97006.38;;;7.82;100.00
11001;BME280;5553;48.506;8.870;2022-10-20T06:44:15;96991.41;;;7.82;100.00
11001;BME280;5553;48.506;8.870;2022-10-20T06:46:44;96997.19;;;7.94;100.00
11001;BME280;5553;48.506;8.870;2022-10-20T06:49:12;97007.88;;;8.09;100.00
11001;BME280;5553;48.506;8.870;2022-10-20T06:51:41;97011.31;;;8.10;100.00
11001;BME280;5553;48.506;8.870;2022-10-20T06:54:09;97011.00;;;8.29;100.00
11001;BME280;5553;48.506;8.870;2022-10-20T06:56:38;97012.50;;;8.31;100.00
11001;BME280;5553;48.506;8.870;2022-10-20T06:59:09;97004.28;;;8.35;100.00
11001;BME280;5553;48.506;8.870;2022-10-20T07:01:38;97008.06;;;8.57;100.00
11001;BME280;5553;48.506;8.870;2022-10-20T07:04:09;97001.84;;;8.41;100.00
11001;BME280;5553;48.506;8.870;2022-10-20T07:06:40;96990.31;;;8.59;100.00
11001;BME280;5553;48.506;8.870;2022-10-20T07:09:12;96976.00;;;8.53;100.00
11001;BME280;5553;48.506;8.870;2022-10-20T07:11:41;96966.56;;;8.83;100.00
11001;BME280;5553;48.506;8.870;2022-10-20T07:14:13;96962.69;;;9.02;100.00
11001;BME280;5553;48.506;8.870;2022-10-20T07:16:41;96954.94;;;9.09;100.00
11001;BME280;5553;48.506;8.870;2022-10-20T07:19:09;96948.06;;;9.39;100.00
11001;BME280;5553;48.506;8.870;2022-10-20T07:21:38;96937.22;;;9.65;100.00
11001;BME280;5553;48.506;8.870;2022-10-20T07:24:06;96907.84;;;9.91;100.00
11001;BME280;5553;48.506;8.870;2022-10-20T07:26:37;96883.09;;;10.15;100.00
11001;BME280;5553;48.506;8.870;2022-10-20T07:29:05;96857.47;;;10.09;100.00
11001;BME280;5553;48.506;8.870;2022-10-20T07:31:39;96836.28;;;10.17;100.00
11001;BME280;5553;48.506;8.870;2022-10-20T07:34:09;96848.06;;;10.44;100.00
11001;BME280;5553;48.506;8.870;2022-10-20T07:36:40;96829.94;;;10.56;100.00
11001;BME280;5553;48.506;8.870;2022-10-20T07:39:09;96807.44;;;11.11;100.00
11001;BME280;5553;48.506;8.870;2022-10-20T07:41:38;96786.81;;;11.00;100.00
11001;BME280;5553;48.506;8.870;2022-10-20T07:44:08;96756.63;;;11.30;100.00
11001;BME280;5553;48.506;8.870;2022-10-20T07:46:39;96737.84;;;10.97;100.00
11001;BME280;5553;48.506;8.870;2022-10-20T07:49:07;96727.09;;;11.98;100.00
11001;BME280;5553;48.506;8.870;2022-10-20T07:51:36;96691.78;;;11.49;100.00
11001;BME280;5553;48.506;8.870;2022-10-20T07:54:06;96683.38;;;12.02;100.00
11001;BME280;5553;48.506;8.870;2022-10-20T07:56:37;96657.59;;;11.82;100.00
11001;BME280;5553;48.506;8.870;2022-10-20T07:59:07;96651.44;;;12.58;100.00
11001;BME280;5553;48.506;8.870;2022-10-20T08:01:39;96630.25;;;12.71;100.00
11001;BME280;5553;48.506;8.870;2022-10-20T08:04:07;96608.69;;;12.94;100.00
11001;BME280;5553;48.506;8.870;2022-10-20T08:06:35;96591.19;;;13.00;100.00
11001;BME280;5553;48.506;8.870;2022-10-20T08:09:03;96580.63;;;13.91;100.00
11001;BME280;5553;48.506;8.870;2022-10-20T08:11:32;96573.28;;;13.87;100.00
11001;BME280;5553;48.506;8.870;2022-10-20T08:14:00;96556.09;;;13.51;100.00
11001;BME280;5553;48.506;8.870;2022-10-20T08:16:29;96555.13;;;13.84;100.00
11001;BME280;5553;48.506;8.870;2022-10-20T08:19:00;96560.63;;;14.27;100.00
11001;BME280;5553;48.506;8.870;2022-10-20T08:21:28;96577.25;;;14.48;100.00
11001;BME280;5553;48.506;8.870;2022-10-20T08:23:57;96565.69;;;14.74;100.00
11001;BME280;5553;48.506;8.870;2022-10-20T08:26:26;96557.63;;;14.55;100.00
11001;BME280;5553;48.506;8.870;2022-10-20T08:28:55;96561.53;;;14.46;100.00
11001;BME280;5553;48.506;8.870;2022-10-20T08:31:23;96551.88;;;13.88;100.00
11001;BME280;5553;48.506;8.870;2022-10-20T08:33:51;96557.56;;;13.92;100.00
11001;BME280;5553;48.506;8.870;2022-10-20T08:36:23;96557.66;;;14.10;100.00
11001;BME280;5553;48.506;8.870;2022-10-20T08:38:52;96541.34;;;13.68;100.00
11001;BME280;5553;48.506;8.870;2022-10-20T08:41:24;96544.81;;;13.62;100.00
11001;BME280;5553;48.506;8.870;2022-10-20T08:43:55;96564.03;;;14.03;100.00
11001;BME280;5553;48.506;8.870;2022-10-20T08:46:28;96576.22;;;14.17;100.00
11001;BME280;5553;48.506;8.870;2022-10-20T08:48:58;96574.41;;;14.81;100.00
11001;BME280;5553;48.506;8.870;2022-10-20T08:51:31;96577.50;;;14.78;100.00
11001;BME280;5553;48.506;8.870;2022-10-20T08:54:02;96572.88;;;15.16;100.00
11001;BME280;5553;48.506;8.870;2022-10-20T08:56:33;96568.47;;;15.47;100.00
11001;BME280;5553;48.506;8.870;2022-10-20T08:59:02;96556.34;;;15.51;100.00
11001;BME280;5553;48.506;8.870;2022-10-20T09:01:33;96555.03;;;15.60;100.00
11001;BME280;5553;48.506;8.870;2022-10-20T09:04:03;96564.97;;;15.90;100.00
11001;BME280;5553;48.506;8.870;2022-10-20T09:06:41;96567.44;;;15.30;100.00
11001;BME280;5553;48.506;8.870;2022-10-20T09:09:12;96564.34;;;15.33;100.00
11001;BME280;5553;48.506;8.870;2022-10-20T09:11:43;96561.50;;;15.28;100.00
11001;BME280;5553;48.506;8.870;2022-10-20T09:14:11;96572.00;;;15.23;100.00
11001;BME280;5553;48.506;8.870;2022-10-20T09:16:41;96587.50;;;15.01;100.00
11001;BME280;5553;48.506;8.870;2022-10-20T09:19:15;96584.56;;;14.59;100.00
11001;BME280;5553;48.506;8.870;2022-10-20T09:21:50;96593.28;;;14.66;100.00
11001;BME280;5553;48.506;8.870;2022-10-20T09:24:21;96596.56;;;14.68;100.00
11001;BME280;5553;48.506;8.870;2022-10-20T09:26:52;96590.44;;;14.67;100.00
11001;BME280;5553;48.506;8.870;2022-10-20T09:29:22;96599.97;;;14.75;100.00
11001;BME280;5553;48.506;8.870;2022-10-20T09:32:01;96591.91;;;14.88;100.00
11001;BME280;5553;48.506;8.870;2022-10-20T09:34:30;96596.41;;;14.88;100.00
11001;BME280;5553;48.506;8.870;2022-10-20T09:37:08;96593.69;;;14.95;100.00
11001;BME280;5553;48.506;8.870;2022-10-20T09:39:41;96581.31;;;15.32;100.00
11001;BME280;5553;48.506;8.870;2022-10-20T09:42:18;96581.63;;;15.17;100.00
11001;BME280;5553;48.506;8.870;2022-10-20T09:44:50;96591.91;;;15.75;100.00
11001;BME280;5553;48.506;8.870;2022-10-20T09:47:21;96582.09;;;15.94;100.00
11001;BME280;5553;48.506;8.870;2022-10-20T09:49:53;96589.59;;;16.16;100.00
11001;BME280;5553;48.506;8.870;2022-10-20T09:52:29;96580.16;;;16.01;100.00
11001;BME280;5553;48.506;8.870;2022-10-20T09:55:01;96585.47;;;15.46;100.00
11001;BME280;5553;48.506;8.870;2022-10-20T09:57:30;96583.78;;;16.07;100.00
11001;BME280;5553;48.506;8.870;2022-10-20T09:59:59;96579.75;;;16.16;100.00
11001;BME280;5553;48.506;8.870;2022-10-20T10:02:30;96583.38;;;16.22;100.00
11001;BME280;5553;48.506;8.870;2022-10-20T10:05:17;96574.06;;;16.13;100.00
11001;BME280;5553;48.506;8.870;2022-10-20T10:07:59;96575.16;;;15.93;100.00
11001;BME280;5553;48.506;8.870;2022-10-20T10:10:29;96586.59;;;16.42;100.00
11001;BME280;5553;48.506;8.870;2022-10-20T10:12:59;96569.56;;;16.43;100.00
11001;BME280;5553;48.506;8.870;2022-10-20T10:15:32;96581.84;;;16.14;100.00
11001;BME280;5553;48.506;8.870;2022-10-20T10:18:11;96578.09;;;15.85;100.00
11001;BME280;5553;48.506;8.870;2022-10-20T10:20:40;96583.59;;;15.90;100.00
11001;BME280;5553;48.506;8.870;2022-10-20T10:23:18;96581.88;;;15.59;100.00
11001;BME280;5553;48.506;8.870;2022-10-20T10:25:48;96579.72;;;16.04;100.00
11001;BME280;5553;48.506;8.870;2022-10-20T10:28:26;96570.56;;;16.00;100.00
11001;BME280;5553;48.506;8.870;2022-10-20T10:31:23;96572.06;;;15.78;100.00
11001;BME280;5553;48.506;8.870;2022-10-20T10:33:57;96567.63;;;16.20;100.00
11001;BME280;5553;48.506;8.870;2022-10-20T10:36:32;96556.81;;;15.85;100.00
11001;BME280;5553;48.506;8.870;2022-10-20T10:39:08;96566.59;;;16.21;100.00
11001;BME280;5553;48.506;8.870;2022-10-20T10:41:57;96570.38;;;15.83;100.00
11001;BME280;5553;48.506;8.870;2022-10-20T10:44:38;96563.63;;;15.81;100.00
11001;BME280;5553;48.506;8.870;2022-10-20T10:47:29;96564.25;;;16.13;100.00
11001;BME280;5553;48.506;8.870;2022-10-20T10:50:14;96557.09;;;16.97;100.00
11001;BME280;5553;48.506;8.870;2022-10-20T10:52:58;96564.06;;;15.59;100.00
11001;BME280;5553;48.506;8.870;2022-10-20T10:55:38;96557.28;;;15.82;100.00
11001;BME280;5553;48.506;8.870;2022-10-20T10:58:20;96553.16;;;16.58;100.00
11001;BME280;5553;48.506;8.870;2022-10-20T11:00:57;96541.66;;;16.76;100.00
11001;BME280;5553;48.506;8.870;2022-10-20T11:03:44;96537.59;;;17.56;100.00
11001;BME280;5553;48.506;8.870;2022-10-20T11:06:20;96530.53;;;17.26;100.00
11001;BME280;5553;48.506;8.870;2022-10-20T11:09:05;96543.59;;;16.27;100.00
11001;BME280;5553;48.506;8.870;2022-10-20T11:11:49;96555.94;;;15.91;100.00
11001;BME280;5553;48.506;8.870;2022-10-20T11:14:30;96563.06;;;16.09;100.00
11001;BME280;5553;48.506;8.870;2022-10-20T11:17:13;96545.53;;;16.20;100.00
11001;BME280;5553;48.506;8.870;2022-10-20T11:19:57;96536.81;;;16.13;100.00
11001;BME280;5553;48.506;8.870;2022-10-20T11:22:37;96521.38;;;16.03;100.00
11001;BME280;5553;48.506;8.870;2022-10-20T11:25:15;96527.41;;;15.98;100.00
11001;BME280;5553;48.506;8.870;2022-10-20T11:27:55;96532.13;;;15.96;100.00
11001;BME280;5553;48.506;8.870;2022-10-20T11:30:24;96525.72;;;16.16;100.00
11001;BME280;5553;48.506;8.870;2022-10-20T11:32:55;96519.13;;;15.88;100.00
11001;BME280;5553;48.506;8.870;2022-10-20T11:35:32;96511.88;;;15.58;100.00
11001;BME280;5553;48.506;8.870;2022-10-20T11:38:11;96503.91;;;15.58;100.00
11001;BME280;5553;48.506;8.870;2022-10-20T11:40:45;96521.50;;;15.59;100.00
11001;BME280;5553;48.506;8.870;2022-10-20T17:42:59;96617.84;;;13.51;100.00
11001;BME280;5553;48.506;8.870;2022-10-20T17:45:28;96610.53;;;13.47;100.00
11001;BME280;5553;48.506;8.870;2022-10-20T17:47:56;96611.13;;;13.49;100.00
11001;BME280;5553;48.506;8.870;2022-10-20T17:50:25;96600.94;;;13.46;100.00
11001;BME280;5553;48.506;8.870;2022-10-20T17:52:53;96601.72;;;13.53;100.00
11001;BME280;5553;48.506;8.870;2022-10-20T17:55:22;96613.34;;;13.59;100.00
11001;BME280;5553;48.506;8.870;2022-10-20T17:57:50;96612.94;;;13.55;100.00
11001;BME280;5553;48.506;8.870;2022-10-20T18:00:22;96616.81;;;13.59;100.00
11001;BME280;5553;48.506;8.870;2022-10-20T18:02:51;96622.75;;;13.55;100.00
11001;BME280;5553;48.506;8.870;2022-10-20T18:05:19;96621.34;;;13.32;100.00
11001;BME280;5553;48.506;8.870;2022-10-20T18:07:49;96635.19;;;13.41;100.00
11001;BME280;5553;48.506;8.870;2022-10-20T18:10:22;96649.28;;;13.28;100.00
11001;BME280;5553;48.506;8.870;2022-10-20T18:13:14;96666.56;;;13.11;100.00
11001;BME280;5553;48.506;8.870;2022-10-20T18:20:54;96684.88;;;13.12;100.00
11001;BME280;5553;48.506;8.870;2022-10-20T18:23:24;96678.38;;;13.21;100.00
11001;BME280;5553;48.506;8.870;2022-10-20T18:29:05;96668.63;;;13.28;100.00
11001;BME280;5553;48.506;8.870;2022-10-20T18:32:17;96656.41;;;13.27;100.00
11001;BME280;5553;48.506;8.870;2022-10-20T18:34:59;96655.59;;;13.27;100.00
11001;BME280;5553;48.506;8.870;2022-10-20T18:37:35;96665.56;;;13.25;100.00
11001;BME280;5553;48.506;8.870;2022-10-20T18:40:24;96663.53;;;13.27;100.00
11001;BME280;5553;48.506;8.870;2022-10-20T18:45:56;96656.59;;;13.33;100.00
11001;BME280;5553;48.506;8.870;2022-10-20T18:48:47;96673.09;;;13.41;100.00
11001;BME280;5553;48.506;8.870;2022-10-20T18:51:32;96662.50;;;13.28;100.00
11001;BME280;5553;48.506;8.870;2022-10-20T18:54:26;96672.72;;;13.31;100.00
11001;BME280;5553;48.506;8.870;2022-10-20T18:57:24;96682.50;;;13.37;100.00
11001;BME280;5553;48.506;8.870;2022-10-20T19:00:08;96692.06;;;13.32;100.00
11001;BME280;5553;48.506;8.870;2022-10-20T19:02:50;96701.22;;;13.29;100.00
11001;BME280;5553;48.506;8.870;2022-10-20T19:05:19;96716.13;;;13.37;100.00
11001;BME280;5553;48.506;8.870;2022-10-20T19:07:48;96718.13;;;13.21;100.00
11001;BME280;5553;48.506;8.870;2022-10-20T19:12:47;96723.41;;;13.15;100.00
11001;BME280;5553;48.506;8.870;2022-10-20T19:15:15;96722.59;;;13.14;100.00
11001;BME280;5553;48.506;8.870;2022-10-20T19:17:44;96721.94;;;12.99;100.00
11001;BME280;5553;48.506;8.870;2022-10-20T19:20:12;96725.63;;;13.04;100.00
11001;BME280;5553;48.506;8.870;2022-10-20T19:23:10;96723.00;;;13.11;100.00
11001;BME280;5553;48.506;8.870;2022-10-20T19:26:09;96747.84;;;13.10;100.00
11001;BME280;5553;48.506;8.870;2022-10-20T19:32:38;96737.88;;;13.12;100.00
11001;BME280;5553;48.506;8.870;2022-10-20T19:34:57;96730.72;;;13.13;100.00
11001;BME280;5553;48.506;8.870;2022-10-20T19:37:43;96754.78;;;13.18;100.00
11001;BME280;5553;48.506;8.870;2022-10-20T19:40:44;96760.50;;;13.15;100.00
11001;BME280;5553;48.506;8.870;2022-10-20T20:03:26;96775.34;;;12.96;100.00
11001;BME280;5553;48.506;8.870;2022-10-20T20:35:54;96847.78;;;12.81;100.00
11001;BME280;5553;48.506;8.870;2022-10-20T20:38:22;96853.06;;;12.81;100.00
11001;BME280;5553;48.506;8.870;2022-10-20T20:40:51;96861.00;;;12.81;100.00